Time;durP1;ratioP1;P1;durP2;ratioP2;P2;SDS_P1;SDS_P2;PMS_P1;PMS_P2;Temp;Humidity;BMP_temperature;BMP_pressure;BME280_temperature;BME280_humidity;BME280_pressure;Samples;Min_cycle;Max_cycle;Signal;HPM_P1;HPM_P2
2023/06/24 00:01:36;;;;;;;1.20;0.77;;;17.40;99.90;;;;;;5074196;28;20170;-75
2023/06/24 00:04:02;;;;;;;4.25;1.10;;;17.30;99.90;;;;;;5073536;28;20473;-75
2023/06/24 00:06:28;;;;;;;1.15;0.60;;;17.30;99.90;;;;;;5073856;28;20032;-75
2023/06/24 00:09:00;;;;;;;4.43;0.60;;;17.30;99.90;;;;;;5074461;28;20031;-75
2023/06/24 00:11:30;;;;;;;0.63;0.55;;;17.30;99.90;;;;;;5072991;28;20029;-75
2023/06/24 00:13:56;;;;;;;3.42;0.82;;;17.20;99.90;;;;;;5073198;28;20036;-75
2023/06/24 00:16:26;;;;;;;1.00;0.70;;;17.20;99.90;;;;;;5073057;28;20029;-75
2023/06/24 00:19:01;;;;;;;1.25;0.90;;;17.20;99.90;;;;;;5073410;28;20036;-75
2023/06/24 00:21:31;;;;;;;0.80;0.80;;;17.10;99.90;;;;;;5073287;28;20055;-75
2023/06/24 00:24:04;;;;;;;0.93;0.80;;;17.10;99.90;;;;;;5074393;28;20032;-75
2023/06/24 00:26:31;;;;;;;1.67;0.90;;;17.10;99.90;;;;;;5072811;28;20032;-75
2023/06/24 00:28:57;;;;;;;1.98;0.75;;;17.20;99.90;;;;;;5074094;28;20021;-75
2023/06/24 00:31:23;;;;;;;2.17;0.80;;;17.20;99.90;;;;;;5072703;28;20028;-75
2023/06/24 00:33:49;;;;;;;1.48;0.88;;;17.10;99.90;;;;;;5072950;28;20021;-75
2023/06/24 00:36:15;;;;;;;1.88;0.95;;;17.10;99.90;;;;;;5072705;28;20121;-75
2023/06/24 00:38:40;;;;;;;0.95;0.80;;;17.10;99.90;;;;;;5072807;28;20121;-75
2023/06/24 00:41:07;;;;;;;0.80;0.77;;;17.10;99.90;;;;;;5072993;28;20025;-75
2023/06/24 00:43:33;;;;;;;0.85;0.80;;;17.10;99.90;;;;;;5073668;28;20028;-75
2023/06/24 00:45:59;;;;;;;0.70;0.70;;;17.10;99.90;;;;;;5073976;28;20472;-75
2023/06/24 00:48:25;;;;;;;4.43;1.00;;;17.10;99.90;;;;;;5072605;28;20484;-75
2023/06/24 00:50:51;;;;;;;1.38;1.00;;;17.10;99.90;;;;;;5072541;28;20078;-75
2023/06/24 00:53:18;;;;;;;0.93;0.90;;;17.10;99.90;;;;;;5072489;28;20029;-75
2023/06/24 00:55:46;;;;;;;1.13;0.93;;;17.10;99.90;;;;;;5072258;28;20047;-75
2023/06/24 00:58:16;;;;;;;1.58;0.95;;;17.10;99.90;;;;;;5073902;28;20037;-76
2023/06/24 01:00:45;;;;;;;;;;;17.10;99.90;;;;;;5074197;28;20040;-75
2023/06/24 01:03:13;;;;;;;2.88;0.82;;;17.00;99.90;;;;;;5072620;28;19999;-75
2023/06/24 01:05:40;;;;;;;1.30;1.10;;;17.00;99.90;;;;;;5072435;28;20119;-75
2023/06/24 01:08:06;;;;;;;1.30;0.95;;;17.00;99.90;;;;;;5073656;28;20076;-75
2023/06/24 01:10:32;;;;;;;1.02;1.02;;;17.00;99.90;;;;;;5072011;28;20025;-74
2023/06/24 01:12:57;;;;;;;2.67;1.00;;;17.00;99.90;;;;;;5072369;28;20024;-74
2023/06/24 01:15:24;;;;;;;1.90;1.00;;;17.00;99.90;;;;;;5072130;28;20388;-75
2023/06/24 01:18:11;;;;;;;1.15;1.05;;;17.00;99.90;;;;;;5073292;28;20032;-74
2023/06/24 01:21:03;;;;;;;2.72;0.82;;;17.00;99.90;;;;;;5076425;28;20468;-74
2023/06/24 01:23:50;;;;;;;1.02;0.98;;;17.00;99.90;;;;;;5077593;28;20036;-74
2023/06/24 01:26:29;;;;;;;4.60;1.25;;;17.00;99.90;;;;;;5077439;28;20074;-75
2023/06/24 01:29:14;;;;;;;1.30;1.05;;;17.00;99.90;;;;;;5076406;28;20380;-74
2023/06/24 01:31:46;;;;;;;2.35;1.50;;;17.00;99.90;;;;;;5076128;28;20024;-74
2023/06/24 01:34:14;;;;;;;2.92;1.77;;;17.00;99.90;;;;;;5075980;28;20029;-74
2023/06/24 01:36:47;;;;;;;1.83;1.20;;;17.00;99.90;;;;;;5075882;28;20025;-75
2023/06/24 01:39:16;;;;;;;1.33;1.23;;;17.00;99.90;;;;;;5076503;28;20127;-75
2023/06/24 01:41:50;;;;;;;2.45;1.45;;;17.00;99.90;;;;;;5077214;28;20029;-75
2023/06/24 01:44:17;;;;;;;2.63;1.70;;;17.00;99.90;;;;;;5077727;28;20046;-74
2023/06/24 01:46:48;;;;;;;1.45;1.35;;;17.00;99.90;;;;;;5077412;28;20028;-75
2023/06/24 01:49:15;;;;;;;1.40;1.30;;;17.00;99.90;;;;;;5075933;28;20071;-74
2023/06/24 01:51:43;;;;;;;3.28;1.60;;;17.00;99.90;;;;;;5076690;28;20025;-75
2023/06/24 01:54:14;;;;;;;1.73;1.63;;;17.00;99.90;;;;;;5075629;28;20051;-75
2023/06/24 01:56:43;;;;;;;2.17;1.30;;;17.00;99.90;;;;;;5075690;28;20065;-74
2023/06/24 01:59:10;;;;;;;5.78;1.50;;;17.00;99.90;;;;;;5075607;28;20032;-74
2023/06/24 02:01:38;;;;;;;1.35;1.08;;;17.00;99.90;;;;;;5076143;28;20485;-74
2023/06/24 02:04:07;;;;;;;1.63;1.23;;;17.00;99.90;;;;;;5076020;28;20025;-74
2023/06/24 02:06:33;;;;;;;1.25;1.15;;;17.00;99.90;;;;;;5076427;28;20480;-74
2023/06/24 02:09:01;;;;;;;1.98;1.33;;;17.00;99.90;;;;;;5075414;28;20024;-74
2023/06/24 02:11:29;;;;;;;1.67;1.40;;;17.00;99.90;;;;;;5075510;28;20032;-75
2023/06/24 02:13:56;;;;;;;2.38;1.15;;;16.90;99.90;;;;;;5076599;28;20044;-74
2023/06/24 02:16:24;;;;;;;1.50;1.40;;;17.00;99.90;;;;;;5075199;28;20078;-74
2023/06/24 02:18:52;;;;;;;1.45;1.35;;;16.90;99.90;;;;;;5076487;28;20024;-74
2023/06/24 02:21:19;;;;;;;4.00;1.60;;;16.90;99.90;;;;;;5076729;28;20035;-74
2023/06/24 02:23:47;;;;;;;3.35;1.42;;;16.90;99.90;;;;;;5075109;28;20055;-75
2023/06/24 02:26:14;;;;;;;2.17;1.38;;;16.80;99.90;;;;;;5076335;28;20024;-74
2023/06/24 02:28:41;;;;;;;2.00;1.85;;;16.80;99.90;;;;;;5076608;28;20029;-74
2023/06/24 02:31:09;;;;;;;3.13;1.80;;;16.80;99.90;;;;;;5074408;28;20035;-74
2023/06/24 02:33:35;;;;;;;3.38;1.85;;;16.80;99.90;;;;;;5074902;28;20052;-75
2023/06/24 02:36:00;;;;;;;2.13;1.90;;;16.80;99.90;;;;;;5076085;28;20071;-74
2023/06/24 02:38:26;;;;;;;2.17;2.03;;;16.80;99.90;;;;;;5076155;28;20032;-74
2023/06/24 02:40:52;;;;;;;2.22;1.90;;;16.70;99.90;;;;;;5076082;28;20471;-75
2023/06/24 02:43:18;;;;;;;1.92;1.83;;;16.70;99.90;;;;;;5074802;28;20020;-74
2023/06/24 02:45:45;;;;;;;2.63;1.92;;;16.70;99.90;;;;;;5074740;28;20029;-74
2023/06/24 02:48:12;;;;;;;1.83;1.73;;;16.60;99.90;;;;;;5074727;28;20039;-74
2023/06/24 02:50:40;;;;;;;2.08;1.88;;;16.60;99.90;;;;;;5074254;28;20044;-74
2023/06/24 02:53:07;;;;;;;2.00;1.90;;;16.60;99.90;;;;;;5075930;28;20383;-74
2023/06/24 02:55:34;;;;;;;1.92;1.83;;;16.50;99.90;;;;;;5075478;28;20465;-74
2023/06/24 02:58:02;;;;;;;2.10;1.60;;;16.40;99.90;;;;;;5075745;28;20111;-74
2023/06/24 03:00:29;;;;;;;1.95;1.85;;;16.40;99.90;;;;;;5075732;28;20097;-74
2023/06/24 03:02:55;;;;;;;1.98;1.88;;;16.30;99.90;;;;;;5075726;28;20159;-74
2023/06/24 03:05:25;;;;;;;1.85;1.65;;;16.30;99.90;;;;;;5074284;28;20123;-75
2023/06/24 03:07:51;;;;;;;1.60;1.50;;;16.30;99.90;;;;;;5075579;28;20025;-74
2023/06/24 03:10:17;;;;;;;1.90;1.63;;;16.30;99.90;;;;;;5074238;28;20074;-75
2023/06/24 03:12:42;;;;;;;2.17;1.65;;;16.20;99.90;;;;;;5075449;28;20028;-75
2023/06/24 03:15:09;;;;;;;2.47;1.70;;;16.20;99.90;;;;;;5074100;28;20029;-75
2023/06/24 03:17:35;;;;;;;2.55;2.08;;;16.10;99.90;;;;;;5075625;28;20036;-74
2023/06/24 03:20:01;;;;;;;1.90;1.80;;;16.10;99.90;;;;;;5075330;28;20036;-74
2023/06/24 03:22:26;;;;;;;2.47;2.35;;;16.00;99.90;;;;;;5073991;28;20025;-74
2023/06/24 03:24:52;;;;;;;2.85;1.80;;;16.00;99.90;;;;;;5074227;28;20060;-74
2023/06/24 03:27:18;;;;;;;5.25;1.98;;;15.90;99.90;;;;;;5073871;28;20075;-75
2023/06/24 03:29:44;;;;;;;1.90;1.73;;;15.80;99.90;;;;;;5075271;28;20028;-75
2023/06/24 03:32:10;;;;;;;1.98;1.88;;;15.80;99.90;;;;;;5075179;28;20056;-75
2023/06/24 03:34:36;;;;;;;2.25;1.90;;;15.80;99.90;;;;;;5073626;28;20029;-75
2023/06/24 03:37:04;;;;;;;1.83;1.73;;;15.60;99.90;;;;;;5073993;28;20031;-75
2023/06/24 03:39:29;;;;;;;3.33;2.30;;;15.60;99.90;;;;;;5073364;28;20029;-75
2023/06/24 03:41:55;;;;;;;1.90;1.80;;;15.60;99.90;;;;;;5073582;28;20021;-75
2023/06/24 03:44:20;;;;;;;2.72;1.80;;;15.50;99.90;;;;;;5073609;28;20024;-75
2023/06/24 03:46:46;;;;;;;2.42;2.25;;;15.50;99.90;;;;;;5074765;28;20039;-75
2023/06/24 03:49:12;;;;;;;2.28;2.10;;;15.40;99.90;;;;;;5073491;28;20048;-75
2023/06/24 03:51:37;;;;;;;2.03;1.92;;;15.40;99.90;;;;;;5074696;28;20024;-75
2023/06/24 03:54:03;;;;;;;1.77;1.67;;;15.30;99.90;;;;;;5073537;28;20131;-75
2023/06/24 03:56:29;;;;;;;2.03;1.92;;;15.30;99.90;;;;;;5074467;28;20028;-76
2023/06/24 03:58:54;;;;;;;1.60;1.50;;;15.30;99.90;;;;;;5074878;28;20036;-75
2023/06/24 04:01:20;;;;;;;1.70;1.60;;;15.30;99.90;;;;;;5074669;28;20029;-76
2023/06/24 04:03:46;;;;;;;1.42;1.35;;;15.30;99.90;;;;;;5073385;28;20116;-76
2023/06/24 04:06:12;;;;;;;1.80;1.70;;;15.30;99.90;;;;;;5073296;28;20078;-76
2023/06/24 04:08:43;;;;;;;2.03;1.80;;;15.20;99.90;;;;;;5073178;28;20021;-77
2023/06/24 04:11:09;;;;;;;2.85;1.17;;;15.20;99.90;;;;;;5075137;28;20023;-77
2023/06/24 04:13:35;;;;;;;1.52;1.42;;;15.20;99.90;;;;;;5073475;28;20027;-61
2023/06/24 04:16:01;;;;;;;1.65;1.55;;;15.20;99.90;;;;;;5073416;28;20029;-58
2023/06/24 04:18:27;;;;;;;1.20;1.10;;;15.30;99.90;;;;;;5072923;28;20519;-60
2023/06/24 04:20:53;;;;;;;1.23;1.20;;;15.30;99.90;;;;;;5074161;28;20111;-61
2023/06/24 04:23:19;;;;;;;1.10;1.10;;;15.50;99.90;;;;;;5074128;28;20082;-61
2023/06/24 04:25:44;;;;;;;2.25;1.00;;;15.50;99.90;;;;;;5073993;28;20028;-61
2023/06/24 04:28:10;;;;;;;0.90;0.90;;;15.50;99.90;;;;;;5074077;28;20056;-61
2023/06/24 04:30:38;;;;;;;1.88;0.90;;;15.60;99.90;;;;;;5073716;28;20107;-62
2023/06/24 04:33:04;;;;;;;1.98;1.10;;;15.50;99.90;;;;;;5074204;28;20039;-62
2023/06/24 04:35:30;;;;;;;1.52;1.08;;;15.50;99.90;;;;;;5072632;28;20032;-62
2023/06/24 04:37:56;;;;;;;0.88;0.88;;;15.60;99.90;;;;;;5074007;28;20032;-61
2023/06/24 04:40:22;;;;;;;0.75;0.75;;;15.60;99.90;;;;;;5073918;28;20020;-61
2023/06/24 04:42:54;;;;;;;0.65;0.65;;;15.70;99.90;;;;;;5073681;28;20028;-62
2023/06/24 04:45:20;;;;;;;0.73;0.73;;;15.80;99.90;;;;;;5074253;28;20029;-62
2023/06/24 04:47:46;;;;;;;1.02;0.60;;;15.80;99.90;;;;;;5073593;28;20434;-62
2023/06/24 04:50:12;;;;;;;0.73;0.73;;;15.80;99.90;;;;;;5059127;28;20049;-62
2023/06/24 04:52:39;;;;;;;1.92;0.68;;;15.80;99.90;;;;;;5053388;28;20025;-62
2023/06/24 04:55:05;;;;;;;1.20;0.85;;;15.80;99.90;;;;;;5053652;28;20055;-62
2023/06/24 04:57:32;;;;;;;0.40;0.40;;;15.90;99.90;;;;;;5053727;28;20029;-62
2023/06/24 04:59:58;;;;;;;0.50;0.50;;;16.00;99.90;;;;;;5035758;28;20485;-62
2023/06/24 05:02:24;;;;;;;0.70;0.70;;;16.00;99.90;;;;;;5053385;28;20056;-80
2023/06/24 05:04:52;;;;;;;0.60;0.60;;;16.00;99.90;;;;;;5035890;28;20116;-78
2023/06/24 05:07:18;;;;;;;0.33;0.33;;;15.90;99.90;;;;;;5053502;28;20025;-80
2023/06/24 05:09:47;;;;;;;0.40;0.40;;;15.80;99.90;;;;;;5035709;28;20029;-77
2023/06/24 05:12:13;;;;;;;0.50;0.50;;;15.80;99.90;;;;;;5053775;28;20162;-78
2023/06/24 05:14:39;;;;;;;0.40;0.40;;;15.80;99.90;;;;;;5036245;28;20432;-77
2023/06/24 05:17:05;;;;;;;0.50;0.50;;;15.80;99.90;;;;;;5053579;28;20114;-79
2023/06/24 05:19:30;;;;;;;0.30;0.30;;;15.80;99.90;;;;;;5053806;28;20350;-78
2023/06/24 05:21:56;;;;;;;0.40;0.40;;;15.80;99.90;;;;;;5053550;28;20037;-78
2023/06/24 05:24:22;;;;;;;0.30;0.30;;;15.80;99.90;;;;;;5053268;28;20473;-78
2023/06/24 05:26:49;;;;;;;0.20;0.20;;;15.90;99.90;;;;;;5053401;28;20029;-76
2023/06/24 05:29:15;;;;;;;0.30;0.30;;;15.90;99.90;;;;;;5053366;28;20057;-77
2023/06/24 05:31:41;;;;;;;1.30;0.30;;;15.90;99.90;;;;;;5053105;28;20021;-76
2023/06/24 05:34:07;;;;;;;0.85;0.38;;;15.90;99.90;;;;;;5053369;28;20025;-77
2023/06/24 05:36:33;;;;;;;0.50;0.50;;;15.90;99.90;;;;;;5053339;28;20025;-76
2023/06/24 05:38:59;;;;;;;0.38;0.22;;;15.90;99.90;;;;;;5053266;28;20138;-76
2023/06/24 05:41:25;;;;;;;0.30;0.20;;;15.80;99.90;;;;;;5035775;28;20532;-82
2023/06/24 05:44:02;;;;;;;0.80;0.43;;;15.80;99.90;;;;;;5053469;28;20025;-76
2023/06/24 05:46:29;;;;;;;0.50;0.30;;;15.70;99.90;;;;;;5053204;28;20163;-77
2023/06/24 05:48:55;;;;;;;0.40;0.40;;;15.60;99.90;;;;;;5038949;28;20136;-77
2023/06/24 05:51:20;;;;;;;0.43;0.43;;;15.70;99.90;;;;;;5072871;28;20097;-76
2023/06/24 05:53:46;;;;;;;0.28;0.28;;;15.60;99.90;;;;;;5071904;28;20531;-76
2023/06/24 05:56:11;;;;;;;0.43;0.43;;;15.60;99.90;;;;;;5071831;28;20035;-76
2023/06/24 05:58:37;;;;;;;0.40;0.40;;;15.50;99.90;;;;;;5072964;28;20488;-75
2023/06/24 06:01:03;;;;;;;0.40;0.40;;;15.50;99.90;;;;;;5072834;28;20107;-75
2023/06/24 06:03:28;;;;;;;1.38;0.30;;;15.50;99.90;;;;;;5071867;28;20024;-75
2023/06/24 06:05:54;;;;;;;0.65;0.32;;;15.40;99.90;;;;;;5074275;28;20127;-75
2023/06/24 06:08:19;;;;;;;0.63;0.40;;;15.40;99.90;;;;;;5076322;28;20028;-76
2023/06/24 06:10:45;;;;;;;1.05;0.60;;;15.40;99.90;;;;;;5075406;28;20033;-75
2023/06/24 06:13:11;;;;;;;0.50;0.50;;;15.40;99.90;;;;;;5076345;28;20032;-75
2023/06/24 06:15:36;;;;;;;0.93;0.50;;;15.30;99.90;;;;;;5076450;28;20040;-75
2023/06/24 06:18:02;;;;;;;0.85;0.60;;;15.40;99.90;;;;;;5075198;28;20074;-74
2023/06/24 06:20:27;;;;;;;4.30;0.70;;;15.40;99.90;;;;;;5076489;28;20021;-74
2023/06/24 06:22:53;;;;;;;0.75;0.65;;;15.30;99.90;;;;;;5075161;28;20139;-74
2023/06/24 06:25:19;;;;;;;0.90;0.60;;;15.30;99.90;;;;;;5075093;28;20036;-74
2023/06/24 06:27:44;;;;;;;1.70;0.77;;;15.30;99.90;;;;;;5075111;28;20460;-73
2023/06/24 06:30:11;;;;;;;0.70;0.70;;;15.30;99.90;;;;;;5076255;28;20518;-73
2023/06/24 06:32:36;;;;;;;1.48;1.10;;;15.30;99.90;;;;;;5076624;28;20039;-73
2023/06/24 06:35:02;;;;;;;1.00;1.00;;;15.40;99.90;;;;;;5076165;28;20029;-73
2023/06/24 06:37:28;;;;;;;1.00;0.90;;;15.40;99.90;;;;;;5074779;28;20031;-73
2023/06/24 06:39:53;;;;;;;2.05;1.10;;;15.40;99.90;;;;;;5075978;28;20464;-74
2023/06/24 06:42:19;;;;;;;1.13;0.88;;;15.40;99.90;;;;;;5074681;28;20025;-74
2023/06/24 06:44:45;;;;;;;1.25;1.15;;;15.50;99.90;;;;;;5076029;28;20027;-74
2023/06/24 06:47:11;;;;;;;0.70;0.70;;;15.40;99.90;;;;;;5076037;28;20021;-74
2023/06/24 06:49:36;;;;;;;1.10;1.00;;;15.30;99.90;;;;;;5074322;28;20149;-74
2023/06/24 06:52:02;;;;;;;1.00;0.90;;;15.30;99.90;;;;;;5074540;28;20123;-74
2023/06/24 06:54:28;;;;;;;1.30;1.20;;;15.30;99.90;;;;;;5075848;28;20032;-74
2023/06/24 06:56:55;;;;;;;0.88;0.88;;;15.30;99.90;;;;;;5075696;28;20021;-73
2023/06/24 06:59:21;;;;;;;1.10;1.08;;;15.30;99.90;;;;;;5075709;28;20020;-73
2023/06/24 07:01:46;;;;;;;1.20;1.08;;;15.30;99.90;;;;;;5075844;28;20028;-74
2023/06/24 07:04:12;;;;;;;2.13;0.98;;;15.30;99.90;;;;;;5074381;28;20035;-74
2023/06/24 07:06:37;;;;;;;0.98;0.75;;;15.30;99.90;;;;;;5075584;28;20372;-74
2023/06/24 07:09:03;;;;;;;0.60;0.60;;;15.30;99.90;;;;;;5074256;28;20460;-74
2023/06/24 07:11:29;;;;;;;1.35;0.80;;;15.20;99.90;;;;;;5074094;28;20035;-74
2023/06/24 07:13:54;;;;;;;1.02;0.93;;;15.20;99.90;;;;;;5075071;28;20074;-74
2023/06/24 07:16:20;;;;;;;1.60;1.10;;;15.10;99.90;;;;;;5073839;28;20035;-74
2023/06/24 07:18:46;;;;;;;0.70;0.70;;;15.10;99.90;;;;;;5075959;28;20047;-74
2023/06/24 07:21:11;;;;;;;1.67;1.05;;;15.10;99.90;;;;;;5075296;28;20020;-74
2023/06/24 07:23:37;;;;;;;3.10;1.05;;;15.10;99.90;;;;;;5075189;28;20468;-74
2023/06/24 07:26:02;;;;;;;4.30;1.40;;;15.10;99.90;;;;;;5074357;28;20039;-74
2023/06/24 07:28:28;;;;;;;1.33;1.25;;;15.20;99.90;;;;;;5073923;28;20029;-74
2023/06/24 07:30:54;;;;;;;1.65;1.55;;;15.20;99.90;;;;;;5075304;28;20116;-75
2023/06/24 07:33:19;;;;;;;2.25;1.65;;;15.30;99.90;;;;;;5075792;28;20036;-74
2023/06/24 07:35:45;;;;;;;1.50;1.40;;;15.30;99.90;;;;;;5074844;28;20037;-74
2023/06/24 07:38:10;;;;;;;1.60;1.50;;;15.30;99.90;;;;;;5073997;28;20082;-66
2023/06/24 07:40:36;;;;;;;2.13;1.85;;;15.40;99.90;;;;;;5074823;28;20035;-65
2023/06/24 07:43:02;;;;;;;1.45;1.35;;;15.50;99.90;;;;;;5074832;28;20070;-65
2023/06/24 07:45:27;;;;;;;1.80;1.70;;;15.60;99.90;;;;;;5074973;28;20055;-66
2023/06/24 07:47:53;;;;;;;1.92;1.48;;;15.70;99.90;;;;;;5073532;28;20353;-66
2023/06/24 07:50:19;;;;;;;1.42;1.20;;;15.80;99.90;;;;;;5073205;28;20048;-66
2023/06/24 07:52:44;;;;;;;0.95;0.95;;;15.90;99.90;;;;;;5074929;28;20028;-66
2023/06/24 07:55:11;;;;;;;2.30;1.23;;;16.00;99.90;;;;;;5074207;28;20029;-66
2023/06/24 07:57:36;;;;;;;1.40;1.30;;;16.00;99.90;;;;;;5074778;28;20028;-66
2023/06/24 08:00:03;;;;;;;1.70;1.60;;;16.00;99.90;;;;;;5074193;28;20035;-66
2023/06/24 08:02:28;;;;;;;1.73;1.63;;;16.00;99.90;;;;;;5074522;28;20024;-66
2023/06/24 08:04:54;;;;;;;1.75;1.65;;;16.00;99.90;;;;;;5074382;28;20025;-66
2023/06/24 08:07:20;;;;;;;2.55;1.40;;;16.10;99.90;;;;;;5073059;28;20032;-67
2023/06/24 08:09:46;;;;;;;1.60;1.50;;;16.10;99.90;;;;;;5074672;28;20024;-67
2023/06/24 08:12:11;;;;;;;3.10;2.03;;;16.10;99.90;;;;;;5074476;28;20104;-66
2023/06/24 08:14:37;;;;;;;3.60;2.22;;;16.20;99.90;;;;;;5072889;28;20024;-65
2023/06/24 08:17:03;;;;;;;2.22;1.45;;;16.10;99.90;;;;;;5076747;28;20024;-75
2023/06/24 08:19:28;;;;;;;1.75;1.63;;;16.10;99.90;;;;;;5094364;28;20055;-75
2023/06/24 08:21:54;;;;;;;2.40;1.50;;;16.00;99.90;;;;;;5093283;28;20109;-74
2023/06/24 08:24:20;;;;;;;2.38;1.75;;;16.00;99.90;;;;;;5092768;28;20119;-75
2023/06/24 08:26:45;;;;;;;2.95;2.00;;;16.00;99.90;;;;;;5094174;28;20035;-74
2023/06/24 08:29:11;;;;;;;2.00;1.83;;;16.00;99.90;;;;;;5093738;28;20158;-75
2023/06/24 08:31:37;;;;;;;2.13;1.67;;;16.00;99.90;;;;;;5092582;28;20024;-74
2023/06/24 08:34:03;;;;;;;2.20;2.00;;;16.10;99.90;;;;;;5093128;28;20031;-74
2023/06/24 08:36:31;;;;;;;2.00;1.90;;;16.00;99.90;;;;;;5092833;28;20039;-74
2023/06/24 08:38:57;;;;;;;2.28;2.08;;;16.10;99.90;;;;;;5094120;28;20028;-74
2023/06/24 08:41:24;;;;;;;2.00;1.90;;;16.10;99.90;;;;;;5092567;28;20433;-76
2023/06/24 08:43:50;;;;;;;2.45;2.00;;;16.10;99.90;;;;;;5092871;28;20077;-71
2023/06/24 08:46:17;;;;;;;2.05;1.90;;;16.10;99.90;;;;;;5094014;28;20032;-72
2023/06/24 08:48:45;;;;;;;3.00;1.90;;;16.10;99.90;;;;;;5090434;28;20028;-72
2023/06/24 08:51:14;;;;;;;2.15;1.95;;;16.10;99.90;;;;;;5056149;28;20020;-72
2023/06/24 08:53:43;;;;;;;2.28;1.88;;;16.10;99.90;;;;;;5073388;28;20115;-72
2023/06/24 08:56:09;;;;;;;2.17;2.08;;;16.20;99.90;;;;;;5055551;28;20570;-72
2023/06/24 08:58:35;;;;;;;2.05;1.95;;;16.20;99.90;;;;;;5073676;28;20074;-73
2023/06/24 09:01:02;;;;;;;1.67;1.58;;;16.20;99.90;;;;;;5073408;28;20067;-72
2023/06/24 09:03:28;;;;;;;1.60;1.50;;;16.20;99.90;;;;;;5073637;28;20033;-75
2023/06/24 09:05:53;;;;;;;1.45;1.35;;;16.20;99.90;;;;;;5073603;28;20107;-76
2023/06/24 09:08:21;;;;;;;1.98;1.58;;;16.20;99.90;;;;;;5056178;28;20055;-74
2023/06/24 09:10:56;;;;;;;3.30;2.00;;;16.20;99.90;;;;;;5056423;28;20033;-74
2023/06/24 09:13:33;;;;;;;2.22;2.03;;;16.30;99.90;;;;;;5073647;28;20024;-75
2023/06/24 09:15:59;;;;;;;2.28;2.13;;;16.20;99.90;;;;;;5073527;28;20396;-75
2023/06/24 09:18:31;;;;;;;2.17;2.05;;;16.20;99.90;;;;;;5055497;28;20032;-75
2023/06/24 09:20:57;;;;;;;2.47;2.38;;;16.20;99.90;;;;;;5073525;28;20388;-75
2023/06/24 09:23:26;;;;;;;2.65;2.45;;;16.10;99.90;;;;;;5056158;28;20025;-75
2023/06/24 09:25:58;;;;;;;5.30;2.58;;;16.10;99.90;;;;;;5055340;28;20035;-75
2023/06/24 09:28:27;;;;;;;4.13;2.97;;;16.20;99.90;;;;;;5055366;28;20032;-76
2023/06/24 09:31:19;;;;;;;;;;;16.10;99.90;;;;;;5055866;28;20024;-75
2023/06/24 09:33:46;;;;;;;3.42;3.13;;;16.10;99.90;;;;;;5050561;28;19909;-75
2023/06/24 09:36:14;;;;;;;2.38;2.17;;;16.20;99.90;;;;;;5073437;28;20024;-75
2023/06/24 09:38:42;;;;;;;4.22;2.67;;;16.10;99.90;;;;;;5055555;28;20388;-74
2023/06/24 09:41:08;;;;;;;3.03;2.83;;;16.10;99.90;;;;;;5076177;28;20047;-74
2023/06/24 09:43:39;;;;;;;4.32;3.25;;;16.10;99.90;;;;;;5077265;28;20372;-74
2023/06/24 09:46:06;;;;;;;4.03;3.60;;;16.10;99.90;;;;;;5059159;28;20036;-75
2023/06/24 09:48:33;;;;;;;4.05;3.50;;;16.10;99.90;;;;;;5076816;28;20025;-76
2023/06/24 09:51:03;;;;;;;4.20;3.67;;;16.10;99.90;;;;;;5077279;28;20035;-74
2023/06/24 09:53:34;;;;;;;4.72;3.88;;;16.00;99.90;;;;;;5058918;28;20032;-74
2023/06/24 09:56:04;;;;;;;4.13;3.72;;;16.00;99.90;;;;;;5076808;28;20020;-75
2023/06/24 09:58:36;;;;;;;5.22;3.75;;;16.00;99.90;;;;;;5059404;28;20028;-75
2023/06/24 10:01:05;;;;;;;7.38;4.72;;;16.00;99.90;;;;;;5058816;28;20051;-75
2023/06/24 10:03:34;;;;;;;6.30;4.90;;;16.00;99.90;;;;;;5076772;28;20025;-74
2023/06/24 10:06:01;;;;;;;5.60;5.05;;;15.90;99.90;;;;;;5076667;28;20060;-74
2023/06/24 10:08:31;;;;;;;5.93;5.13;;;15.90;99.90;;;;;;5058705;28;20040;-74
2023/06/24 10:10:56;;;;;;;5.32;4.82;;;15.90;99.90;;;;;;5076598;28;20028;-74
2023/06/24 10:13:23;;;;;;;5.95;5.20;;;15.80;99.90;;;;;;5076619;28;20090;-75
2023/06/24 10:15:49;;;;;;;6.05;5.47;;;15.80;99.90;;;;;;5058418;28;20435;-75
2023/06/24 10:18:44;;;;;;;6.55;5.57;;;15.80;99.90;;;;;;5058701;28;20060;-74
2023/06/24 10:21:10;;;;;;;7.78;5.55;;;15.80;99.90;;;;;;5037902;28;20094;-75
2023/06/24 10:23:41;;;;;;;9.68;5.60;;;15.80;99.90;;;;;;5076986;28;20037;-74
2023/06/24 10:26:23;;;;;;;6.22;5.18;;;15.80;99.90;;;;;;5076254;28;20034;-74
2023/06/24 10:29:07;;;;;;;6.93;4.93;;;15.80;99.90;;;;;;5058396;28;20028;-74
2023/06/24 10:31:39;;;;;;;5.30;4.80;;;15.70;99.90;;;;;;5058268;28;20453;-74
2023/06/24 10:34:23;;;;;;;5.30;4.60;;;15.80;99.90;;;;;;5075868;28;20031;-74
2023/06/24 10:37:01;;;;;;;5.82;4.97;;;15.70;99.90;;;;;;5058117;28;20055;-74
2023/06/24 10:40:00;;;;;;;6.78;5.40;;;15.80;99.90;;;;;;5058129;28;20209;-74
2023/06/24 10:42:41;;;;;;;5.80;3.80;;;15.90;99.90;;;;;;5057743;28;20111;-75
2023/06/24 10:45:16;;;;;;;5.20;4.70;;;15.90;99.90;;;;;;5075961;28;20035;-74
2023/06/24 10:47:59;;;;;;;6.65;5.10;;;15.90;99.90;;;;;;5076229;28;20027;-74
2023/06/24 10:50:25;;;;;;;5.95;4.97;;;16.00;99.90;;;;;;5086084;28;20056;-75
2023/06/24 10:52:55;;;;;;;6.85;5.60;;;16.00;99.90;;;;;;5095535;28;20081;-75
2023/06/24 10:55:22;;;;;;;5.60;4.35;;;16.10;99.90;;;;;;5095949;28;20024;-74
2023/06/24 10:57:48;;;;;;;4.60;4.20;;;16.10;99.90;;;;;;5094708;28;20028;-75
2023/06/24 11:00:15;;;;;;;5.80;5.13;;;16.20;99.90;;;;;;5095734;28;20039;-75
2023/06/24 11:02:41;;;;;;;5.95;5.25;;;16.20;99.90;;;;;;5095956;28;20024;-75
2023/06/24 11:05:07;;;;;;;7.30;4.82;;;16.20;99.90;;;;;;5094268;28;20108;-75
2023/06/24 11:07:34;;;;;;;8.45;5.43;;;16.30;99.90;;;;;;5094788;28;20095;-75
2023/06/24 11:10:14;;;;;;;7.45;5.90;;;16.40;99.90;;;;;;5094209;28;20123;-75
2023/06/24 11:12:40;;;;;;;8.57;6.50;;;16.40;99.90;;;;;;5094402;28;20028;-77
2023/06/24 11:15:08;;;;;;;6.97;6.30;;;16.40;99.90;;;;;;5095581;28;20025;-75
2023/06/24 11:17:35;;;;;;;10.10;6.07;;;16.50;99.90;;;;;;5095654;28;20039;-75
2023/06/24 11:20:06;;;;;;;8.68;6.10;;;16.40;99.90;;;;;;5095217;28;20376;-75
2023/06/24 11:22:31;;;;;;;9.43;6.32;;;16.40;99.90;;;;;;5094208;28;20024;-75
2023/06/24 11:24:57;;;;;;;7.82;6.07;;;16.30;99.90;;;;;;5095344;28;20028;-76
2023/06/24 11:27:25;;;;;;;8.60;5.90;;;16.20;99.90;;;;;;5094000;28;20031;-75
2023/06/24 11:29:53;;;;;;;7.38;6.13;;;16.20;99.90;;;;;;5094124;28;20417;-76
2023/06/24 11:32:19;;;;;;;8.70;6.60;;;16.20;99.90;;;;;;5093998;28;20075;-76
2023/06/24 11:34:45;;;;;;;7.43;5.93;;;16.20;99.90;;;;;;5093963;28;20024;-76
2023/06/24 11:37:12;;;;;;;9.02;6.75;;;16.20;99.90;;;;;;5095093;28;20077;-75
2023/06/24 11:39:38;;;;;;;8.02;6.30;;;16.20;99.90;;;;;;5093832;28;20388;-76
2023/06/24 11:42:07;;;;;;;7.30;6.35;;;16.20;99.90;;;;;;5093828;28;20024;-75
2023/06/24 11:44:32;;;;;;;;;;;16.20;99.90;;;;;;5095506;28;20077;-76
2023/06/24 11:47:06;;;;;;;6.97;6.28;;;16.20;99.90;;;;;;5093795;28;20306;-76
2023/06/24 11:49:31;;;;;;;6.85;6.18;;;16.20;99.90;;;;;;5093305;28;20044;-76
2023/06/24 11:51:57;;;;;;;9.00;6.38;;;16.10;99.90;;;;;;5093629;28;20028;-75
2023/06/24 11:54:24;;;;;;;7.28;6.45;;;16.10;99.90;;;;;;5094889;28;20376;-76
2023/06/24 11:56:54;;;;;;;12.93;7.22;;;16.10;99.90;;;;;;5094665;28;20060;-75
2023/06/24 11:59:26;;;;;;;6.68;6.00;;;16.10;99.90;;;;;;5094430;28;20109;-76
2023/06/24 12:01:54;;;;;;;8.55;7.05;;;16.20;99.90;;;;;;5092958;28;20059;-75
2023/06/24 12:04:20;;;;;;;8.68;7.15;;;16.10;99.90;;;;;;5093572;28;20020;-75
2023/06/24 12:06:46;;;;;;;7.97;7.15;;;16.20;99.90;;;;;;5093379;28;20047;-75
2023/06/24 12:09:12;;;;;;;10.63;7.35;;;16.20;99.90;;;;;;5094528;28;20447;-75
2023/06/24 12:11:38;;;;;;;8.60;7.18;;;16.20;99.90;;;;;;5094533;28;20023;-76
2023/06/24 12:14:05;;;;;;;9.95;7.45;;;16.20;99.90;;;;;;5094199;28;20059;-75
2023/06/24 12:16:31;;;;;;;7.70;6.90;;;16.20;99.90;;;;;;5093118;28;20032;-75
2023/06/24 12:18:57;;;;;;;9.48;7.57;;;16.20;99.90;;;;;;5094582;28;20408;-75
2023/06/24 12:21:22;;;;;;;9.88;7.50;;;16.20;99.90;;;;;;5093078;28;20113;-76
2023/06/24 12:23:48;;;;;;;9.40;8.20;;;16.20;99.90;;;;;;5094307;28;20028;-76
2023/06/24 12:26:14;;;;;;;8.00;7.20;;;16.20;99.90;;;;;;5093947;28;20108;-76
2023/06/24 12:28:39;;;;;;;8.55;7.40;;;16.30;99.90;;;;;;5092909;28;20387;-76
2023/06/24 12:31:05;;;;;;;12.77;7.00;;;16.40;99.90;;;;;;5093882;28;20142;-76
2023/06/24 12:33:31;;;;;;;9.82;7.15;;;16.60;99.90;;;;;;5092839;28;20379;-76
2023/06/24 12:35:57;;;;;;;8.32;6.75;;;16.60;99.90;;;;;;5092628;28;20028;-76
2023/06/24 12:38:22;;;;;;;10.48;6.75;;;16.70;99.90;;;;;;5092760;28;20034;-76
2023/06/24 12:40:48;;;;;;;7.82;7.03;;;16.70;99.90;;;;;;5094117;28;20360;-76
2023/06/24 12:43:14;;;;;;;8.68;6.80;;;16.60;99.90;;;;;;5092340;28;20486;-76
2023/06/24 12:45:43;;;;;;;6.72;6.10;;;16.60;99.90;;;;;;5092708;28;20152;-76
2023/06/24 12:48:09;;;;;;;6.90;6.20;;;16.60;99.90;;;;;;5092887;28;20020;-76
2023/06/24 12:50:35;;;;;;;10.30;6.82;;;16.50;99.90;;;;;;5076156;28;20389;-76